sensor_id;sensor_type;location;lat;lon;timestamp;pressure;altitude;pressure_sealevel;temperature;humidity
63654;BME280;49809;47.418;19.080;2023-06-14T00:01:06;100241.97;;;12.75;87.32
63654;BME280;49809;47.418;19.080;2023-06-14T00:04:56;100237.19;;;12.61;87.64
63654;BME280;49809;47.418;19.080;2023-06-14T00:08:24;100246.75;;;12.52;88.02
63654;BME280;49809;47.418;19.080;2023-06-14T00:12:03;100250.72;;;12.55;88.73
63654;BME280;49809;47.418;19.080;2023-06-14T00:15:40;100247.25;;;12.59;89.15
63654;BME280;49809;47.418;19.080;2023-06-14T00:19:26;100245.94;;;12.52;90.08
63654;BME280;49809;47.418;19.080;2023-06-14T00:23:04;100248.34;;;12.48;90.38
63654;BME280;49809;47.418;19.080;2023-06-14T00:26:47;100255.22;;;12.44;90.89
63654;BME280;49809;47.418;19.080;2023-06-14T00:30:30;100259.75;;;12.39;91.62
63654;BME280;49809;47.418;19.080;2023-06-14T00:33:58;100257.34;;;12.42;91.97
63654;BME280;49809;47.418;19.080;2023-06-14T00:37:35;100252.56;;;12.39;92.66
63654;BME280;49809;47.418;19.080;2023-06-14T00:41:15;100256.28;;;12.38;92.75
63654;BME280;49809;47.418;19.080;2023-06-14T00:45:02;100257.87;;;12.39;93.12
63654;BME280;49809;47.418;19.080;2023-06-14T00:48:29;100258.41;;;12.36;93.81
63654;BME280;49809;47.418;19.080;2023-06-14T00:52:00;100254.69;;;12.37;94.50
63654;BME280;49809;47.418;19.080;2023-06-14T00:55:37;100258.41;;;12.36;94.75
63654;BME280;49809;47.418;19.080;2023-06-14T00:59:13;100254.16;;;12.40;94.68
63654;BME280;49809;47.418;19.080;2023-06-14T01:02:52;100252.56;;;12.29;95.70
63654;BME280;49809;47.418;19.080;2023-06-14T01:06:54;100247.25;;;12.24;95.97
63654;BME280;49809;47.418;19.080;2023-06-14T01:19:12;100250.16;;;12.17;97.17
63654;BME280;49809;47.418;19.080;2023-06-14T01:23:08;100252.00;;;12.12;97.77
63654;BME280;49809;47.418;19.080;2023-06-14T01:26:45;100244.03;;;12.12;98.20
63654;BME280;49809;47.418;19.080;2023-06-14T01:30:22;100241.38;;;12.07;98.47
63654;BME280;49809;47.418;19.080;2023-06-14T01:34:09;100241.91;;;12.09;98.89
63654;BME280;49809;47.418;19.080;2023-06-14T01:42:00;100243.19;;;12.01;99.64
63654;BME280;49809;47.418;19.080;2023-06-14T01:45:37;100249.84;;;11.99;100.00
63654;BME280;49809;47.418;19.080;2023-06-14T01:49:25;100255.13;;;11.94;100.00
63654;BME280;49809;47.418;19.080;2023-06-14T01:52:52;100257.25;;;11.92;100.00
63654;BME280;49809;47.418;19.080;2023-06-14T01:56:28;100261.25;;;11.94;100.00
63654;BME280;49809;47.418;19.080;2023-06-14T01:59:57;100258.31;;;11.86;100.00
63654;BME280;49809;47.418;19.080;2023-06-14T02:07:18;100260.94;;;11.81;100.00
63654;BME280;49809;47.418;19.080;2023-06-14T02:10:59;100265.75;;;11.94;100.00
63654;BME280;49809;47.418;19.080;2023-06-14T02:14:32;100264.69;;;11.90;100.00
63654;BME280;49809;47.418;19.080;2023-06-14T02:18:05;100262.81;;;11.85;100.00
63654;BME280;49809;47.418;19.080;2023-06-14T02:21:57;100256.94;;;11.83;100.00
63654;BME280;49809;47.418;19.080;2023-06-14T02:25:45;100257.78;;;11.89;100.00
63654;BME280;49809;47.418;19.080;2023-06-14T02:29:31;100265.22;;;11.97;100.00
63654;BME280;49809;47.418;19.080;2023-06-14T02:33:07;100258.84;;;11.98;100.00
63654;BME280;49809;47.418;19.080;2023-06-14T02:36:55;100267.87;;;12.02;100.00
63654;BME280;49809;47.418;19.080;2023-06-14T02:40:42;100267.87;;;11.97;100.00
63654;BME280;49809;47.418;19.080;2023-06-14T02:44:18;100268.41;;;11.94;100.00
63654;BME280;49809;47.418;19.080;2023-06-14T02:47:58;100268.91;;;11.96;100.00
63654;BME280;49809;47.418;19.080;2023-06-14T02:51:42;100258.31;;;11.86;100.00
63654;BME280;49809;47.418;19.080;2023-06-14T02:55:48;100266.22;;;11.81;100.00
63654;BME280;49809;47.418;19.080;2023-06-14T02:59:38;100267.53;;;11.78;100.00
63654;BME280;49809;47.418;19.080;2023-06-14T03:03:30;100267.28;;;11.80;100.00
63654;BME280;49809;47.418;19.080;2023-06-14T03:07:08;100263.22;;;11.72;100.00
63654;BME280;49809;47.418;19.080;2023-06-14T03:11:02;100267.72;;;11.71;100.00
63654;BME280;49809;47.418;19.080;2023-06-14T03:14:40;100266.22;;;11.75;100.00
63654;BME280;49809;47.418;19.080;2023-06-14T03:22:47;100263.84;;;11.79;100.00
63654;BME280;49809;47.418;19.080;2023-06-14T03:26:31;100267.81;;;11.82;100.00
63654;BME280;49809;47.418;19.080;2023-06-14T03:30:10;100260.16;;;11.85;100.00
63654;BME280;49809;47.418;19.080;2023-06-14T03:33:58;100262.81;;;11.85;100.00
63654;BME280;49809;47.418;19.080;2023-06-14T03:37:46;100263.34;;;11.92;100.00
63654;BME280;49809;47.418;19.080;2023-06-14T03:41:24;100268.94;;;12.01;100.00
63654;BME280;49809;47.418;19.080;2023-06-14T03:45:00;100271.88;;;12.04;100.00
63654;BME280;49809;47.418;19.080;2023-06-14T03:56:50;100281.22;;;12.27;100.00
63654;BME280;49809;47.418;19.080;2023-06-14T04:00:31;100282.84;;;12.43;100.00
63654;BME280;49809;47.418;19.080;2023-06-14T04:07:59;100288.44;;;12.62;100.00
63654;BME280;49809;47.418;19.080;2023-06-14T04:11:38;100292.41;;;12.70;98.61
63654;BME280;49809;47.418;19.080;2023-06-14T04:15:33;100287.09;;;12.80;98.89
63654;BME280;49809;47.418;19.080;2023-06-14T04:19:20;100296.69;;;12.96;97.39
63654;BME280;49809;47.418;19.080;2023-06-14T04:22:45;100301.19;;;13.00;96.24
63654;BME280;49809;47.418;19.080;2023-06-14T04:26:36;100307.34;;;13.16;96.11
63654;BME280;49809;47.418;19.080;2023-06-14T04:30:22;100304.13;;;13.24;95.20
63654;BME280;49809;47.418;19.080;2023-06-14T04:34:25;100303.56;;;13.32;94.33
63654;BME280;49809;47.418;19.080;2023-06-14T04:38:12;100303.53;;;13.42;93.72
63654;BME280;49809;47.418;19.080;2023-06-14T04:42:09;100306.44;;;13.56;94.05
63654;BME280;49809;47.418;19.080;2023-06-14T04:46:02;100312.00;;;13.65;93.11
63654;BME280;49809;47.418;19.080;2023-06-14T04:49:49;100312.78;;;13.70;92.13
63654;BME280;49809;47.418;19.080;2023-06-14T04:53:35;100305.53;;;13.86;91.89
63654;BME280;49809;47.418;19.080;2023-06-14T04:57:14;100323.62;;;13.89;92.75
63654;BME280;49809;47.418;19.080;2023-06-14T05:01:06;100314.53;;;14.00;91.32
63654;BME280;49809;47.418;19.080;2023-06-14T05:04:57;100312.88;;;14.09;90.22
63654;BME280;49809;47.418;19.080;2023-06-14T05:08:32;100313.88;;;14.23;89.61
63654;BME280;49809;47.418;19.080;2023-06-14T05:12:10;100316.47;;;14.33;88.50
63654;BME280;49809;47.418;19.080;2023-06-14T05:16:00;100309.59;;;14.38;88.03
63654;BME280;49809;47.418;19.080;2023-06-14T05:19:44;100317.00;;;14.46;88.68
63654;BME280;49809;47.418;19.080;2023-06-14T05:23:20;100320.59;;;14.65;87.76
63654;BME280;49809;47.418;19.080;2023-06-14T05:26:58;100328.03;;;14.63;87.23
63654;BME280;49809;47.418;19.080;2023-06-14T05:30:27;100318.31;;;14.82;86.96
63654;BME280;49809;47.418;19.080;2023-06-14T05:34:21;100320.38;;;14.95;86.29
63654;BME280;49809;47.418;19.080;2023-06-14T05:37:46;100319.22;;;15.30;84.62
63654;BME280;49809;47.418;19.080;2023-06-14T05:41:38;100321.47;;;15.47;83.96
63654;BME280;49809;47.418;19.080;2023-06-14T05:45:03;100315.75;;;15.63;83.89
63654;BME280;49809;47.418;19.080;2023-06-14T05:48:42;100321.44;;;15.76;83.09
63654;BME280;49809;47.418;19.080;2023-06-14T05:52:22;100326.72;;;15.81;82.60
63654;BME280;49809;47.418;19.080;2023-06-14T05:55:58;100322.06;;;15.91;82.20
63654;BME280;49809;47.418;19.080;2023-06-14T05:59:34;100327.84;;;15.98;81.17
63654;BME280;49809;47.418;19.080;2023-06-14T06:03:43;100321.53;;;16.13;81.30
63654;BME280;49809;47.418;19.080;2023-06-14T06:07:32;100325.66;;;16.24;80.27
63654;BME280;49809;47.418;19.080;2023-06-14T06:11:22;100325.53;;;16.53;79.46
63654;BME280;49809;47.418;19.080;2023-06-14T06:15:14;100317.47;;;16.58;78.54
63654;BME280;49809;47.418;19.080;2023-06-14T06:18:51;100321.50;;;16.74;79.33
63654;BME280;49809;47.418;19.080;2023-06-14T06:22:27;100316.91;;;16.93;78.05
63654;BME280;49809;47.418;19.080;2023-06-14T06:26:03;100322.75;;;17.28;76.43
63654;BME280;49809;47.418;19.080;2023-06-14T06:29:42;100331.16;;;17.35;74.85
63654;BME280;49809;47.418;19.080;2023-06-14T06:33:19;100326.78;;;17.71;75.05
63654;BME280;49809;47.418;19.080;2023-06-14T06:37:07;100325.78;;;17.81;74.20
63654;BME280;49809;47.418;19.080;2023-06-14T06:40:46;100334.38;;;17.92;73.77
63654;BME280;49809;47.418;19.080;2023-06-14T06:44:41;100332.81;;;18.04;71.13
63654;BME280;49809;47.418;19.080;2023-06-14T06:48:06;100320.91;;;18.46;69.62
63654;BME280;49809;47.418;19.080;2023-06-14T06:51:59;100323.69;;;19.22;68.21
63654;BME280;49809;47.418;19.080;2023-06-14T07:03:55;100305.28;;;21.32;59.47
63654;BME280;49809;47.418;19.080;2023-06-14T07:07:34;100308.81;;;21.23;59.55
63654;BME280;49809;47.418;19.080;2023-06-14T07:11:24;100319.94;;;21.51;58.36
63654;BME280;49809;47.418;19.080;2023-06-14T07:14:51;100321.53;;;20.89;58.83
63654;BME280;49809;47.418;19.080;2023-06-14T07:18:32;100326.41;;;21.88;56.22
63654;BME280;49809;47.418;19.080;2023-06-14T07:22:08;100324.97;;;21.06;57.78
63654;BME280;49809;47.418;19.080;2023-06-14T07:26:05;100318.34;;;21.59;56.82
63654;BME280;49809;47.418;19.080;2023-06-14T07:29:43;100319.97;;;21.81;53.98
63654;BME280;49809;47.418;19.080;2023-06-14T07:33:19;100321.63;;;21.73;55.11
63654;BME280;49809;47.418;19.080;2023-06-14T07:36:55;100321.84;;;20.87;58.94
63654;BME280;49809;47.418;19.080;2023-06-14T07:44:52;100326.84;;;21.32;57.84
63654;BME280;49809;47.418;19.080;2023-06-14T07:48:19;100336.13;;;21.81;55.72
63654;BME280;49809;47.418;19.080;2023-06-14T07:52:06;100330.41;;;21.53;56.71
63654;BME280;49809;47.418;19.080;2023-06-14T07:55:35;100328.69;;;22.36;53.68
63654;BME280;49809;47.418;19.080;2023-06-14T07:59:13;100335.41;;;22.30;54.60
63654;BME280;49809;47.418;19.080;2023-06-14T08:03:00;100341.56;;;21.72;56.13
63654;BME280;49809;47.418;19.080;2023-06-14T08:06:49;100342.22;;;21.69;55.69
63654;BME280;49809;47.418;19.080;2023-06-14T08:10:20;100336.44;;;23.69;51.01
63654;BME280;49809;47.418;19.080;2023-06-14T08:14:04;100338.84;;;25.03;46.06
63654;BME280;49809;47.418;19.080;2023-06-14T08:17:35;100337.91;;;25.70;44.50
63654;BME280;49809;47.418;19.080;2023-06-14T08:25:33;100337.88;;;22.15;51.61
63654;BME280;49809;47.418;19.080;2023-06-14T08:29:12;100338.03;;;23.70;48.94
63654;BME280;49809;47.418;19.080;2023-06-14T08:32:50;100332.59;;;24.07;50.09
63654;BME280;49809;47.418;19.080;2023-06-14T08:36:44;100338.37;;;24.57;47.55
63654;BME280;49809;47.418;19.080;2023-06-14T08:40:23;100340.75;;;25.77;46.45
63654;BME280;49809;47.418;19.080;2023-06-14T08:44:01;100348.38;;;25.40;45.28
63654;BME280;49809;47.418;19.080;2023-06-14T08:47:45;100348.41;;;25.12;44.08
63654;BME280;49809;47.418;19.080;2023-06-14T08:50:55;100354.06;;;24.92;47.06
63654;BME280;49809;47.418;19.080;2023-06-14T08:54:16;100361.03;;;24.93;46.37
63654;BME280;49809;47.418;19.080;2023-06-14T08:57:24;100364.47;;;24.78;45.11
63654;BME280;49809;47.418;19.080;2023-06-14T09:00:29;100365.38;;;23.69;46.95
63654;BME280;49809;47.418;19.080;2023-06-14T09:03:33;100365.59;;;23.88;46.33
63654;BME280;49809;47.418;19.080;2023-06-14T09:06:39;100367.31;;;24.29;46.82
63654;BME280;49809;47.418;19.080;2023-06-14T09:09:44;100369.28;;;24.84;45.91
63654;BME280;49809;47.418;19.080;2023-06-14T09:13:18;100366.72;;;25.31;45.24
63654;BME280;49809;47.418;19.080;2023-06-14T09:16:22;100359.94;;;25.69;42.79
63654;BME280;49809;47.418;19.080;2023-06-14T09:20:11;100373.13;;;25.11;44.08
63654;BME280;49809;47.418;19.080;2023-06-14T09:23:47;100369.31;;;24.72;44.98
63654;BME280;49809;47.418;19.080;2023-06-14T09:27:17;100373.16;;;24.07;47.93
63654;BME280;49809;47.418;19.080;2023-06-14T09:30:54;100365.06;;;24.99;44.62
63654;BME280;49809;47.418;19.080;2023-06-14T09:34:25;100362.37;;;24.59;45.94
63654;BME280;49809;47.418;19.080;2023-06-14T09:38:00;100353.97;;;24.12;48.12
63654;BME280;49809;47.418;19.080;2023-06-14T09:41:35;100350.75;;;24.18;46.84
63654;BME280;49809;47.418;19.080;2023-06-14T09:44:55;100358.87;;;26.97;44.22
63654;BME280;49809;47.418;19.080;2023-06-14T09:48:31;100340.94;;;27.84;39.41
63654;BME280;49809;47.418;19.080;2023-06-14T09:51:51;100351.22;;;26.64;37.88
63654;BME280;49809;47.418;19.080;2023-06-14T09:55:21;100351.28;;;26.87;37.14
63654;BME280;49809;47.418;19.080;2023-06-14T09:58:57;100343.22;;;26.33;39.59
63654;BME280;49809;47.418;19.080;2023-06-14T10:02:54;100350.62;;;26.36;41.35
63654;BME280;49809;47.418;19.080;2023-06-14T10:06:50;100346.72;;;25.08;40.18
63654;BME280;49809;47.418;19.080;2023-06-14T10:10:19;100348.72;;;24.67;41.75
63654;BME280;49809;47.418;19.080;2023-06-14T10:13:56;100343.03;;;25.44;42.42
63654;BME280;49809;47.418;19.080;2023-06-14T10:21:57;100340.16;;;25.84;42.57
63654;BME280;49809;47.418;19.080;2023-06-14T10:25:30;100340.62;;;25.11;42.97
63654;BME280;49809;47.418;19.080;2023-06-14T10:29:06;100342.84;;;26.73;40.14
63654;BME280;49809;47.418;19.080;2023-06-14T10:33:07;100348.28;;;26.73;36.97
63654;BME280;49809;47.418;19.080;2023-06-14T10:36:31;100344.84;;;29.06;32.61
63654;BME280;49809;47.418;19.080;2023-06-14T10:39:43;100341.75;;;29.04;32.90
63654;BME280;49809;47.418;19.080;2023-06-14T10:43:22;100330.28;;;29.28;29.11
63654;BME280;49809;47.418;19.080;2023-06-14T10:46:54;100339.38;;;30.70;28.95
63654;BME280;49809;47.418;19.080;2023-06-14T10:50:28;100335.84;;;28.98;27.47
63654;BME280;49809;47.418;19.080;2023-06-14T10:54:11;100334.44;;;31.14;28.35
63654;BME280;49809;47.418;19.080;2023-06-14T10:57:59;100331.34;;;31.26;26.67
63654;BME280;49809;47.418;19.080;2023-06-14T11:01:36;100329.66;;;30.69;29.28
63654;BME280;49809;47.418;19.080;2023-06-14T11:05:26;100319.91;;;29.92;28.90
63654;BME280;49809;47.418;19.080;2023-06-14T11:09:31;100311.72;;;30.82;27.46
63654;BME280;49809;47.418;19.080;2023-06-14T11:12:48;100307.28;;;30.42;28.98
63654;BME280;49809;47.418;19.080;2023-06-14T11:16:26;100305.47;;;30.85;24.52
63654;BME280;49809;47.418;19.080;2023-06-14T11:20:08;100303.91;;;32.04;25.66
63654;BME280;49809;47.418;19.080;2023-06-14T11:23:40;100319.41;;;32.46;24.08
63654;BME280;49809;47.418;19.080;2023-06-14T11:26:59;100301.37;;;32.49;23.71
63654;BME280;49809;47.418;19.080;2023-06-14T11:30:43;100301.53;;;32.06;24.38
63654;BME280;49809;47.418;19.080;2023-06-14T11:34:11;100304.53;;;32.44;25.83
63654;BME280;49809;47.418;19.080;2023-06-14T11:37:41;100300.03;;;30.92;25.32
63654;BME280;49809;47.418;19.080;2023-06-14T11:41:10;100303.22;;;31.26;26.15
63654;BME280;49809;47.418;19.080;2023-06-14T11:44:13;100303.72;;;32.57;23.25
63654;BME280;49809;47.418;19.080;2023-06-14T11:47:17;100298.06;;;31.81;23.63
63654;BME280;49809;47.418;19.080;2023-06-14T11:51:02;100298.44;;;30.73;24.36
63654;BME280;49809;47.418;19.080;2023-06-14T11:54:19;100293.00;;;31.83;25.66
63654;BME280;49809;47.418;19.080;2023-06-14T11:57:53;100289.00;;;32.05;25.26
63654;BME280;49809;47.418;19.080;2023-06-14T12:01:16;100286.78;;;31.65;24.95
63654;BME280;49809;47.418;19.080;2023-06-14T12:05:06;100282.38;;;32.06;23.23
63654;BME280;49809;47.418;19.080;2023-06-14T12:08:58;100282.44;;;31.88;23.57
63654;BME280;49809;47.418;19.080;2023-06-14T12:12:25;100295.38;;;31.49;26.19
63654;BME280;49809;47.418;19.080;2023-06-14T12:15:32;100291.37;;;32.90;22.67
63654;BME280;49809;47.418;19.080;2023-06-14T12:18:38;100286.56;;;34.28;21.63
63654;BME280;49809;47.418;19.080;2023-06-14T12:22:04;100296.72;;;32.46;23.43
63654;BME280;49809;47.418;19.080;2023-06-14T12:25:29;100284.13;;;33.69;21.53
63654;BME280;49809;47.418;19.080;2023-06-14T12:29:32;100292.94;;;32.18;23.57
63654;BME280;49809;47.418;19.080;2023-06-14T12:33:12;100286.75;;;31.82;23.25
63654;BME280;49809;47.418;19.080;2023-06-14T12:36:47;100286.16;;;30.32;25.74
63654;BME280;49809;47.418;19.080;2023-06-14T12:40:24;100284.16;;;30.14;27.64
63654;BME280;49809;47.418;19.080;2023-06-14T12:44:10;100290.97;;;27.95;29.70
63654;BME280;49809;47.418;19.080;2023-06-14T12:47:57;100293.88;;;28.69;28.17
63654;BME280;49809;47.418;19.080;2023-06-14T12:51:16;100292.06;;;26.54;30.33
63654;BME280;49809;47.418;19.080;2023-06-14T12:54:50;100299.09;;;26.20;34.57
63654;BME280;49809;47.418;19.080;2023-06-14T12:57:54;100303.72;;;26.35;31.65
63654;BME280;49809;47.418;19.080;2023-06-14T13:01:29;100282.50;;;26.41;33.34
63654;BME280;49809;47.418;19.080;2023-06-14T13:05:08;100290.88;;;25.98;33.04
63654;BME280;49809;47.418;19.080;2023-06-14T13:08:53;100284.19;;;25.95;32.85
63654;BME280;49809;47.418;19.080;2023-06-14T13:12:13;100281.19;;;26.73;31.04
63654;BME280;49809;47.418;19.080;2023-06-14T13:15:39;100279.00;;;27.24;31.00
63654;BME280;49809;47.418;19.080;2023-06-14T13:19:14;100293.59;;;25.82;33.42
63654;BME280;49809;47.418;19.080;2023-06-14T13:22:54;100290.25;;;26.81;33.14
63654;BME280;49809;47.418;19.080;2023-06-14T13:26:27;100281.66;;;26.37;33.67
63654;BME280;49809;47.418;19.080;2023-06-14T13:30:04;100284.81;;;26.04;34.30
63654;BME280;49809;47.418;19.080;2023-06-14T13:33:42;100275.28;;;26.49;34.89
63654;BME280;49809;47.418;19.080;2023-06-14T13:37:17;100285.50;;;26.36;35.51
63654;BME280;49809;47.418;19.080;2023-06-14T13:40:40;100281.13;;;26.70;36.29
63654;BME280;49809;47.418;19.080;2023-06-14T13:44:07;100277.06;;;27.02;36.53
63654;BME280;49809;47.418;19.080;2023-06-14T13:47:44;100272.25;;;26.73;35.56
63654;BME280;49809;47.418;19.080;2023-06-14T13:51:11;100274.19;;;26.53;37.27
63654;BME280;49809;47.418;19.080;2023-06-14T13:54:46;100266.28;;;26.45;36.71
63654;BME280;49809;47.418;19.080;2023-06-14T13:58:03;100269.78;;;26.26;36.60
63654;BME280;49809;47.418;19.080;2023-06-14T14:01:23;100264.41;;;26.29;37.33
63654;BME280;49809;47.418;19.080;2023-06-14T14:05:03;100271.91;;;26.55;37.01
63654;BME280;49809;47.418;19.080;2023-06-14T14:08:22;100265.62;;;25.78;37.51
63654;BME280;49809;47.418;19.080;2023-06-14T14:11:51;100266.78;;;25.96;37.77
63654;BME280;49809;47.418;19.080;2023-06-14T14:15:07;100263.16;;;26.43;37.24
63654;BME280;49809;47.418;19.080;2023-06-14T14:18:31;100260.00;;;26.82;36.37
63654;BME280;49809;47.418;19.080;2023-06-14T14:22:08;100267.94;;;26.14;38.28
63654;BME280;49809;47.418;19.080;2023-06-14T14:25:38;100267.75;;;25.69;38.49
63654;BME280;49809;47.418;19.080;2023-06-14T14:29:17;100262.41;;;26.07;37.71
63654;BME280;49809;47.418;19.080;2023-06-14T14:32:36;100265.81;;;25.69;38.88
63654;BME280;49809;47.418;19.080;2023-06-14T14:36:13;100266.53;;;26.01;37.62
63654;BME280;49809;47.418;19.080;2023-06-14T14:39:47;100265.62;;;25.46;38.28
63654;BME280;49809;47.418;19.080;2023-06-14T14:43:06;100268.38;;;25.15;38.72
63654;BME280;49809;47.418;19.080;2023-06-14T14:46:43;100258.25;;;25.12;39.39
63654;BME280;49809;47.418;19.080;2023-06-14T14:50:09;100271.34;;;25.10;39.42
63654;BME280;49809;47.418;19.080;2023-06-14T14:53:28;100268.13;;;24.77;39.67
63654;BME280;49809;47.418;19.080;2023-06-14T14:57:03;100274.13;;;24.54;39.77
63654;BME280;49809;47.418;19.080;2023-06-14T15:00:37;100268.19;;;24.64;39.30
63654;BME280;49809;47.418;19.080;2023-06-14T15:04:13;100268.28;;;24.40;40.82
63654;BME280;49809;47.418;19.080;2023-06-14T15:07:38;100268.81;;;24.30;39.72
63654;BME280;49809;47.418;19.080;2023-06-14T15:11:08;100275.75;;;24.31;39.48
63654;BME280;49809;47.418;19.080;2023-06-14T15:14:43;100265.06;;;24.35;39.24
63654;BME280;49809;47.418;19.080;2023-06-14T15:18:20;100269.53;;;24.43;38.74
63654;BME280;49809;47.418;19.080;2023-06-14T15:21:57;100264.09;;;24.03;39.30
63654;BME280;49809;47.418;19.080;2023-06-14T15:25:29;100258.34;;;24.16;39.94
63654;BME280;49809;47.418;19.080;2023-06-14T15:29:05;100252.66;;;23.81;39.50
63654;BME280;49809;47.418;19.080;2023-06-14T15:32:49;100260.22;;;23.64;40.22
63654;BME280;49809;47.418;19.080;2023-06-14T15:36:09;100261.41;;;23.18;41.38
63654;BME280;49809;47.418;19.080;2023-06-14T15:39:40;100255.38;;;23.45;41.27
63654;BME280;49809;47.418;19.080;2023-06-14T15:42:59;100256.16;;;23.46;41.18
63654;BME280;49809;47.418;19.080;2023-06-14T15:46:20;100256.59;;;23.35;41.05
63654;BME280;49809;47.418;19.080;2023-06-14T15:49:58;100248.81;;;23.34;41.16
63654;BME280;49809;47.418;19.080;2023-06-14T15:53:17;100251.63;;;23.25;40.93
63654;BME280;49809;47.418;19.080;2023-06-14T15:56:44;100249.25;;;23.12;40.90
63654;BME280;49809;47.418;19.080;2023-06-14T16:00:02;100244.97;;;23.11;41.08
63654;BME280;49809;47.418;19.080;2023-06-14T16:03:23;100254.09;;;23.30;40.84
63654;BME280;49809;47.418;19.080;2023-06-14T16:06:58;100254.34;;;23.37;40.14
63654;BME280;49809;47.418;19.080;2023-06-14T16:10:37;100258.81;;;23.33;39.28
63654;BME280;49809;47.418;19.080;2023-06-14T16:14:02;100263.91;;;23.23;39.26
63654;BME280;49809;47.418;19.080;2023-06-14T16:17:38;100271.69;;;22.79;40.16
63654;BME280;49809;47.418;19.080;2023-06-14T16:21:13;100268.31;;;22.62;39.55
63654;BME280;49809;47.418;19.080;2023-06-14T16:24:51;100271.37;;;22.60;39.47
63654;BME280;49809;47.418;19.080;2023-06-14T16:28:11;100268.00;;;22.63;39.31
63654;BME280;49809;47.418;19.080;2023-06-14T16:31:49;100268.53;;;22.57;39.98
63654;BME280;49809;47.418;19.080;2023-06-14T16:35:21;100272.44;;;22.47;40.08
63654;BME280;49809;47.418;19.080;2023-06-14T16:39:01;100274.00;;;22.48;40.13
63654;BME280;49809;47.418;19.080;2023-06-14T16:42:43;100277.87;;;22.59;39.61
63654;BME280;49809;47.418;19.080;2023-06-14T16:46:09;100277.09;;;22.59;40.20
63654;BME280;49809;47.418;19.080;2023-06-14T16:49:45;100275.78;;;22.44;40.93
63654;BME280;49809;47.418;19.080;2023-06-14T16:53:23;100284.72;;;22.57;41.18
63654;BME280;49809;47.418;19.080;2023-06-14T16:56:56;100278.28;;;22.49;40.54
63654;BME280;49809;47.418;19.080;2023-06-14T17:04:58;100284.19;;;22.63;39.53
63654;BME280;49809;47.418;19.080;2023-06-14T17:12:33;100297.81;;;23.00;37.62
63654;BME280;49809;47.418;19.080;2023-06-14T17:16:07;100300.00;;;22.73;38.26
63654;BME280;49809;47.418;19.080;2023-06-14T17:19:45;100299.03;;;22.90;38.43
63654;BME280;49809;47.418;19.080;2023-06-14T17:23:41;100302.81;;;22.77;39.20
63654;BME280;49809;47.418;19.080;2023-06-14T17:27:45;100301.69;;;22.57;39.35
63654;BME280;49809;47.418;19.080;2023-06-14T17:31:13;100306.56;;;22.43;38.94
63654;BME280;49809;47.418;19.080;2023-06-14T17:35:03;100313.88;;;22.42;39.79
63654;BME280;49809;47.418;19.080;2023-06-14T17:47:18;100324.59;;;22.09;42.22
63654;BME280;49809;47.418;19.080;2023-06-14T17:51:05;100325.94;;;21.95;43.96
63654;BME280;49809;47.418;19.080;2023-06-14T17:54:40;100333.31;;;21.77;45.38
63654;BME280;49809;47.418;19.080;2023-06-14T17:58:16;100323.34;;;21.69;44.24
63654;BME280;49809;47.418;19.080;2023-06-14T18:02:20;100326.44;;;21.59;45.20
63654;BME280;49809;47.418;19.080;2023-06-14T18:06:29;100324.87;;;21.49;43.24
63654;BME280;49809;47.418;19.080;2023-06-14T18:10:09;100330.28;;;21.41;43.72
63654;BME280;49809;47.418;19.080;2023-06-14T18:13:58;100325.25;;;21.31;43.55
63654;BME280;49809;47.418;19.080;2023-06-14T18:17:44;100322.13;;;21.20;43.83
63654;BME280;49809;47.418;19.080;2023-06-14T18:21:39;100329.25;;;21.07;44.99
63654;BME280;49809;47.418;19.080;2023-06-14T18:29:17;100321.53;;;20.63;47.11
63654;BME280;49809;47.418;19.080;2023-06-14T18:32:58;100334.50;;;20.44;47.00
63654;BME280;49809;47.418;19.080;2023-06-14T18:37:08;100337.81;;;20.23;47.63
63654;BME280;49809;47.418;19.080;2023-06-14T18:40:53;100348.19;;;20.08;48.92
63654;BME280;49809;47.418;19.080;2023-06-14T18:44:32;100343.25;;;19.84;50.79
63654;BME280;49809;47.418;19.080;2023-06-14T18:52:22;100349.59;;;19.26;55.14
63654;BME280;49809;47.418;19.080;2023-06-14T18:56:04;100349.47;;;19.09;54.74
63654;BME280;49809;47.418;19.080;2023-06-14T19:00:00;100356.91;;;18.90;55.69
63654;BME280;49809;47.418;19.080;2023-06-14T19:03:47;100370.44;;;18.85;57.94
63654;BME280;49809;47.418;19.080;2023-06-14T19:07:46;100370.38;;;18.76;57.39
63654;BME280;49809;47.418;19.080;2023-06-14T19:11:38;100372.50;;;18.65;58.58
63654;BME280;49809;47.418;19.080;2023-06-14T19:15:28;100385.84;;;18.57;59.37
63654;BME280;49809;47.418;19.080;2023-06-14T19:19:33;100393.78;;;18.48;60.15
63654;BME280;49809;47.418;19.080;2023-06-14T19:31:40;100396.69;;;17.97;63.42
63654;BME280;49809;47.418;19.080;2023-06-14T19:35:18;100403.44;;;17.81;63.38
63654;BME280;49809;47.418;19.080;2023-06-14T19:38:56;100403.19;;;17.64;64.07
63654;BME280;49809;47.418;19.080;2023-06-14T19:42:55;100408.00;;;17.48;64.84
63654;BME280;49809;47.418;19.080;2023-06-14T19:46:34;100408.16;;;17.38;64.61
63654;BME280;49809;47.418;19.080;2023-06-14T19:50:31;100410.31;;;17.22;65.61
63654;BME280;49809;47.418;19.080;2023-06-14T19:54:15;100419.78;;;17.15;65.78
63654;BME280;49809;47.418;19.080;2023-06-14T20:02:20;100415.84;;;16.93;66.66
63654;BME280;49809;47.418;19.080;2023-06-14T20:06:21;100406.78;;;16.89;65.50
63654;BME280;49809;47.418;19.080;2023-06-14T20:09:50;100407.44;;;16.81;65.67